Arctic Village Airport
PARC : now visible

Airfield :











YOU CAN JOIN US ON...

 
LOGIN :

Register | Disclaimer

   EN    FR    IT 

 









Legend :    VFR   Marginal VFR   IFR   Intensive IFR   Very Intensive IFR
Visi :
Ceiling :
>= 8 km
>= 3000ft
5 to 8 km
1000 to 3000 ft
1500m to 5 km
500 to 1000 ft
800 to 1500m
200 to 500 ft
< 800m
< 200 ft
Symbols :   Thunderstorms  Fog  Heavy snow  Heavy precipitations  Wind > 20 kt






- Airport Elevation : 2092 ft
- IATA code : ARC


PARC - Arctic Village

CURRENT METAR :
  • 200531Z AUTO 15005KT 10SM OVC015 M09/M11 A2912 RMK AO2 SNE10 P0000 FZRANO

EXPIRED METARs :
  • 200456Z AUTO 15005KT 9SM -SN OVC013 M10/M11 A2912 RMK AO2 SNB43 SLP922 P0000 T11001111 FZRANO
  • 200356Z AUTO 13004KT 10SM OVC013 M11/M13 A2911 RMK AO2 SNB34E43 SLP919 P0000 T11111128 FZRANO
  • 200319Z AUTO 17004KT 10SM BKN015 BKN110 M11/M12 A2910 RMK AO2 FZRANO
  • 200256Z AUTO 14004KT 10SM SCT100 M11/M12 A2910 RMK AO2 SNE28 SLP916 P0000 60001 T11061117 55001 FZRANO

TAF N/A



MET'MAP, your aeronautical weather chart ! - Copyright ORBIFLY December 2007 - Disclaimer

ORBIFLY MET'MAP TEAM :

Programming & Development : Alexandra Zaïnal
Concept & original design : Baudouin d'Aumeries
Assistance for programming : Marc-Olivier Méhu
Technical & hardware support : Manuel Goepfert

Contact : metmap@orbifly.com




SOURCES & CREDITS :

   NOAA       Earth
Advisory